sensor_id;sensor_type;location;lat;lon;timestamp;P1;durP1;ratioP1;P2;durP2;ratioP2
5491;SDS011;2768;53.540;10.224;2023-12-20T00:01:07;13.37;;;2.47;;
5491;SDS011;2768;53.540;10.224;2023-12-20T00:07:00;8.07;;;2.33;;
5491;SDS011;2768;53.540;10.224;2023-12-20T00:12:54;7.83;;;1.80;;
5491;SDS011;2768;53.540;10.224;2023-12-20T00:18:48;9.33;;;2.63;;
5491;SDS011;2768;53.540;10.224;2023-12-20T00:24:41;17.50;;;2.57;;
5491;SDS011;2768;53.540;10.224;2023-12-20T00:30:36;7.60;;;2.27;;
5491;SDS011;2768;53.540;10.224;2023-12-20T00:36:31;10.23;;;3.00;;
5491;SDS011;2768;53.540;10.224;2023-12-20T00:42:24;11.17;;;2.50;;
5491;SDS011;2768;53.540;10.224;2023-12-20T00:48:18;8.03;;;2.20;;
5491;SDS011;2768;53.540;10.224;2023-12-20T00:54:13;5.70;;;1.70;;
5491;SDS011;2768;53.540;10.224;2023-12-20T01:00:07;9.30;;;2.10;;
5491;SDS011;2768;53.540;10.224;2023-12-20T01:06:01;7.80;;;2.20;;
5491;SDS011;2768;53.540;10.224;2023-12-20T01:11:57;6.40;;;1.67;;
5491;SDS011;2768;53.540;10.224;2023-12-20T01:17:51;6.87;;;1.60;;
5491;SDS011;2768;53.540;10.224;2023-12-20T01:23:45;6.27;;;1.87;;
5491;SDS011;2768;53.540;10.224;2023-12-20T01:29:39;8.00;;;1.90;;
5491;SDS011;2768;53.540;10.224;2023-12-20T01:35:32;14.73;;;2.27;;
5491;SDS011;2768;53.540;10.224;2023-12-20T01:41:26;12.43;;;1.70;;
5491;SDS011;2768;53.540;10.224;2023-12-20T01:47:20;7.97;;;1.80;;
5491;SDS011;2768;53.540;10.224;2023-12-20T01:53:13;10.13;;;1.90;;
5491;SDS011;2768;53.540;10.224;2023-12-20T01:59:08;5.67;;;1.40;;
5491;SDS011;2768;53.540;10.224;2023-12-20T02:05:03;6.43;;;2.27;;
5491;SDS011;2768;53.540;10.224;2023-12-20T02:10:58;9.53;;;2.03;;
5491;SDS011;2768;53.540;10.224;2023-12-20T02:16:52;7.73;;;1.73;;
5491;SDS011;2768;53.540;10.224;2023-12-20T02:22:47;9.37;;;1.97;;
5491;SDS011;2768;53.540;10.224;2023-12-20T02:28:40;7.10;;;1.70;;
5491;SDS011;2768;53.540;10.224;2023-12-20T02:34:34;8.90;;;2.00;;
5491;SDS011;2768;53.540;10.224;2023-12-20T02:40:29;13.13;;;1.67;;
5491;SDS011;2768;53.540;10.224;2023-12-20T02:46:22;7.47;;;2.17;;
5491;SDS011;2768;53.540;10.224;2023-12-20T02:52:16;7.13;;;2.30;;
5491;SDS011;2768;53.540;10.224;2023-12-20T02:58:11;9.93;;;1.90;;
5491;SDS011;2768;53.540;10.224;2023-12-20T03:04:04;5.93;;;2.23;;
5491;SDS011;2768;53.540;10.224;2023-12-20T03:09:57;6.70;;;2.30;;
5491;SDS011;2768;53.540;10.224;2023-12-20T03:16:12;6.57;;;2.10;;
5491;SDS011;2768;53.540;10.224;2023-12-20T03:22:10;11.77;;;3.10;;
5491;SDS011;2768;53.540;10.224;2023-12-20T03:28:03;8.83;;;2.30;;
5491;SDS011;2768;53.540;10.224;2023-12-20T03:33:59;8.87;;;2.30;;
5491;SDS011;2768;53.540;10.224;2023-12-20T03:39:52;6.57;;;1.83;;
5491;SDS011;2768;53.540;10.224;2023-12-20T03:45:46;7.53;;;2.40;;
5491;SDS011;2768;53.540;10.224;2023-12-20T03:51:41;12.13;;;2.77;;
5491;SDS011;2768;53.540;10.224;2023-12-20T03:57:34;7.17;;;1.90;;
5491;SDS011;2768;53.540;10.224;2023-12-20T04:03:27;10.83;;;1.80;;
5491;SDS011;2768;53.540;10.224;2023-12-20T04:09:21;5.30;;;2.00;;
5491;SDS011;2768;53.540;10.224;2023-12-20T04:15:15;7.50;;;1.83;;
5491;SDS011;2768;53.540;10.224;2023-12-20T04:21:10;12.27;;;2.60;;
5491;SDS011;2768;53.540;10.224;2023-12-20T04:27:05;9.53;;;2.13;;
5491;SDS011;2768;53.540;10.224;2023-12-20T04:32:59;10.90;;;1.90;;
5491;SDS011;2768;53.540;10.224;2023-12-20T04:38:52;11.70;;;2.17;;
5491;SDS011;2768;53.540;10.224;2023-12-20T04:44:47;11.90;;;2.37;;
5491;SDS011;2768;53.540;10.224;2023-12-20T04:50:40;8.37;;;1.70;;
5491;SDS011;2768;53.540;10.224;2023-12-20T04:56:34;7.97;;;2.47;;
5491;SDS011;2768;53.540;10.224;2023-12-20T05:02:28;10.50;;;2.90;;
5491;SDS011;2768;53.540;10.224;2023-12-20T05:08:22;7.80;;;2.00;;
5491;SDS011;2768;53.540;10.224;2023-12-20T05:14:15;7.30;;;2.60;;
5491;SDS011;2768;53.540;10.224;2023-12-20T05:20:10;10.57;;;3.30;;
5491;SDS011;2768;53.540;10.224;2023-12-20T05:26:03;9.17;;;2.60;;
5491;SDS011;2768;53.540;10.224;2023-12-20T05:31:57;9.10;;;2.40;;
5491;SDS011;2768;53.540;10.224;2023-12-20T05:37:53;11.80;;;2.60;;
5491;SDS011;2768;53.540;10.224;2023-12-20T05:43:46;6.30;;;2.30;;
5491;SDS011;2768;53.540;10.224;2023-12-20T05:49:39;6.77;;;2.80;;
5491;SDS011;2768;53.540;10.224;2023-12-20T05:55:34;9.73;;;2.57;;
5491;SDS011;2768;53.540;10.224;2023-12-20T06:01:27;6.23;;;2.70;;
5491;SDS011;2768;53.540;10.224;2023-12-20T06:07:20;9.47;;;2.43;;
5491;SDS011;2768;53.540;10.224;2023-12-20T06:13:16;11.00;;;2.80;;
5491;SDS011;2768;53.540;10.224;2023-12-20T06:19:09;12.57;;;2.40;;
5491;SDS011;2768;53.540;10.224;2023-12-20T06:25:03;9.63;;;2.37;;
5491;SDS011;2768;53.540;10.224;2023-12-20T06:31:02;11.40;;;2.60;;
5491;SDS011;2768;53.540;10.224;2023-12-20T06:36:55;4.50;;;2.27;;
5491;SDS011;2768;53.540;10.224;2023-12-20T06:42:49;7.83;;;3.00;;
5491;SDS011;2768;53.540;10.224;2023-12-20T06:48:58;10.67;;;2.20;;
5491;SDS011;2768;53.540;10.224;2023-12-20T06:54:51;9.43;;;2.10;;
5491;SDS011;2768;53.540;10.224;2023-12-20T07:00:45;12.50;;;2.80;;
5491;SDS011;2768;53.540;10.224;2023-12-20T07:06:40;4.50;;;1.57;;
5491;SDS011;2768;53.540;10.224;2023-12-20T07:12:33;8.50;;;2.57;;
5491;SDS011;2768;53.540;10.224;2023-12-20T07:18:26;15.77;;;2.67;;
5491;SDS011;2768;53.540;10.224;2023-12-20T07:24:22;9.73;;;1.93;;
5491;SDS011;2768;53.540;10.224;2023-12-20T07:30:15;8.87;;;2.50;;
5491;SDS011;2768;53.540;10.224;2023-12-20T07:36:08;13.93;;;2.63;;
5491;SDS011;2768;53.540;10.224;2023-12-20T07:42:04;10.53;;;2.60;;
5491;SDS011;2768;53.540;10.224;2023-12-20T07:47:57;13.63;;;2.70;;
5491;SDS011;2768;53.540;10.224;2023-12-20T07:53:51;10.10;;;2.60;;
5491;SDS011;2768;53.540;10.224;2023-12-20T07:59:45;7.23;;;2.50;;
5491;SDS011;2768;53.540;10.224;2023-12-20T08:05:39;12.20;;;3.53;;
5491;SDS011;2768;53.540;10.224;2023-12-20T08:11:32;8.73;;;2.80;;
5491;SDS011;2768;53.540;10.224;2023-12-20T08:17:28;13.93;;;2.60;;
5491;SDS011;2768;53.540;10.224;2023-12-20T08:23:21;9.10;;;2.73;;
5491;SDS011;2768;53.540;10.224;2023-12-20T08:29:23;7.90;;;2.73;;
5491;SDS011;2768;53.540;10.224;2023-12-20T08:35:18;14.57;;;3.20;;
5491;SDS011;2768;53.540;10.224;2023-12-20T08:41:12;11.53;;;3.10;;
5491;SDS011;2768;53.540;10.224;2023-12-20T08:47:06;11.50;;;2.90;;
5491;SDS011;2768;53.540;10.224;2023-12-20T08:53:01;6.47;;;2.10;;
5491;SDS011;2768;53.540;10.224;2023-12-20T08:58:55;7.53;;;2.43;;
5491;SDS011;2768;53.540;10.224;2023-12-20T09:04:48;10.10;;;3.20;;
5491;SDS011;2768;53.540;10.224;2023-12-20T09:10:44;9.37;;;3.13;;
5491;SDS011;2768;53.540;10.224;2023-12-20T09:16:38;8.03;;;2.57;;
5491;SDS011;2768;53.540;10.224;2023-12-20T09:22:31;8.57;;;2.00;;
5491;SDS011;2768;53.540;10.224;2023-12-20T09:28:26;7.40;;;1.93;;
5491;SDS011;2768;53.540;10.224;2023-12-20T09:34:21;5.17;;;1.90;;
5491;SDS011;2768;53.540;10.224;2023-12-20T09:40:16;6.90;;;1.50;;
5491;SDS011;2768;53.540;10.224;2023-12-20T09:46:13;2.97;;;1.00;;
5491;SDS011;2768;53.540;10.224;2023-12-20T09:52:14;2.47;;;1.33;;
5491;SDS011;2768;53.540;10.224;2023-12-20T09:58:08;2.70;;;1.20;;
5491;SDS011;2768;53.540;10.224;2023-12-20T10:04:05;3.03;;;1.37;;
5491;SDS011;2768;53.540;10.224;2023-12-20T10:10:04;2.00;;;0.80;;
5491;SDS011;2768;53.540;10.224;2023-12-20T10:16:00;1.00;;;0.80;;
5491;SDS011;2768;53.540;10.224;2023-12-20T10:21:56;2.20;;;1.00;;
5491;SDS011;2768;53.540;10.224;2023-12-20T10:28:08;2.17;;;0.80;;
5491;SDS011;2768;53.540;10.224;2023-12-20T10:34:02;1.30;;;0.70;;
5491;SDS011;2768;53.540;10.224;2023-12-20T10:39:57;1.67;;;0.93;;
5491;SDS011;2768;53.540;10.224;2023-12-20T10:45:54;4.20;;;0.90;;
5491;SDS011;2768;53.540;10.224;2023-12-20T10:51:48;7.13;;;0.93;;
5491;SDS011;2768;53.540;10.224;2023-12-20T10:57:45;4.13;;;1.00;;
5491;SDS011;2768;53.540;10.224;2023-12-20T11:03:48;4.37;;;1.43;;
5491;SDS011;2768;53.540;10.224;2023-12-20T11:09:43;3.73;;;1.07;;
5491;SDS011;2768;53.540;10.224;2023-12-20T11:15:53;2.20;;;1.20;;
5491;SDS011;2768;53.540;10.224;2023-12-20T11:21:47;3.30;;;1.13;;
5491;SDS011;2768;53.540;10.224;2023-12-20T11:27:41;6.80;;;1.57;;
5491;SDS011;2768;53.540;10.224;2023-12-20T11:33:38;3.93;;;1.50;;
5491;SDS011;2768;53.540;10.224;2023-12-20T11:39:33;9.27;;;1.50;;
5491;SDS011;2768;53.540;10.224;2023-12-20T11:45:27;1.20;;;0.87;;
5491;SDS011;2768;53.540;10.224;2023-12-20T11:51:24;2.47;;;1.40;;
5491;SDS011;2768;53.540;10.224;2023-12-20T11:57:19;1.77;;;1.27;;
5491;SDS011;2768;53.540;10.224;2023-12-20T12:03:14;5.50;;;1.40;;
5491;SDS011;2768;53.540;10.224;2023-12-20T12:09:09;11.30;;;1.67;;
5491;SDS011;2768;53.540;10.224;2023-12-20T12:15:03;4.87;;;1.70;;
5491;SDS011;2768;53.540;10.224;2023-12-20T12:21:01;3.53;;;1.70;;
5491;SDS011;2768;53.540;10.224;2023-12-20T12:27:05;8.93;;;2.47;;
5491;SDS011;2768;53.540;10.224;2023-12-20T12:32:59;7.50;;;2.50;;
5491;SDS011;2768;53.540;10.224;2023-12-20T12:38:53;9.97;;;2.63;;
5491;SDS011;2768;53.540;10.224;2023-12-20T12:44:50;6.17;;;2.57;;
5491;SDS011;2768;53.540;10.224;2023-12-20T12:50:43;16.40;;;2.90;;
5491;SDS011;2768;53.540;10.224;2023-12-20T12:56:39;13.53;;;3.00;;
5491;SDS011;2768;53.540;10.224;2023-12-20T13:02:34;13.20;;;2.70;;
5491;SDS011;2768;53.540;10.224;2023-12-20T13:08:29;9.13;;;2.53;;
5491;SDS011;2768;53.540;10.224;2023-12-20T13:14:22;10.93;;;3.70;;
5491;SDS011;2768;53.540;10.224;2023-12-20T13:20:17;12.07;;;3.40;;
5491;SDS011;2768;53.540;10.224;2023-12-20T13:26:13;13.83;;;2.70;;
5491;SDS011;2768;53.540;10.224;2023-12-20T13:32:07;9.30;;;2.67;;
5491;SDS011;2768;53.540;10.224;2023-12-20T13:38:03;7.87;;;2.60;;
5491;SDS011;2768;53.540;10.224;2023-12-20T13:43:58;12.73;;;2.60;;
5491;SDS011;2768;53.540;10.224;2023-12-20T13:49:51;14.53;;;2.93;;
5491;SDS011;2768;53.540;10.224;2023-12-20T13:55:46;13.23;;;2.50;;
5491;SDS011;2768;53.540;10.224;2023-12-20T14:01:40;12.93;;;3.30;;
5491;SDS011;2768;53.540;10.224;2023-12-20T14:07:34;10.70;;;3.00;;
5491;SDS011;2768;53.540;10.224;2023-12-20T14:13:29;11.87;;;3.00;;
5491;SDS011;2768;53.540;10.224;2023-12-20T14:19:23;12.63;;;2.67;;
5491;SDS011;2768;53.540;10.224;2023-12-20T14:25:17;12.00;;;2.93;;
5491;SDS011;2768;53.540;10.224;2023-12-20T14:31:12;11.70;;;3.83;;
5491;SDS011;2768;53.540;10.224;2023-12-20T14:37:06;17.57;;;3.90;;
5491;SDS011;2768;53.540;10.224;2023-12-20T14:43:00;16.03;;;3.90;;
5491;SDS011;2768;53.540;10.224;2023-12-20T14:48:57;19.80;;;5.60;;
5491;SDS011;2768;53.540;10.224;2023-12-20T14:54:50;11.13;;;3.10;;
5491;SDS011;2768;53.540;10.224;2023-12-20T15:00:44;15.40;;;3.53;;
5491;SDS011;2768;53.540;10.224;2023-12-20T15:06:39;10.20;;;3.90;;
5491;SDS011;2768;53.540;10.224;2023-12-20T15:12:34;14.77;;;3.63;;
5491;SDS011;2768;53.540;10.224;2023-12-20T15:18:27;11.40;;;3.03;;
5491;SDS011;2768;53.540;10.224;2023-12-20T15:24:25;13.27;;;3.40;;
5491;SDS011;2768;53.540;10.224;2023-12-20T15:36:43;12.57;;;3.20;;
5491;SDS011;2768;53.540;10.224;2023-12-20T15:42:45;14.73;;;4.43;;
5491;SDS011;2768;53.540;10.224;2023-12-20T15:48:39;12.53;;;2.87;;
5491;SDS011;2768;53.540;10.224;2023-12-20T15:54:32;15.90;;;3.33;;
5491;SDS011;2768;53.540;10.224;2023-12-20T16:00:26;18.97;;;4.00;;
5491;SDS011;2768;53.540;10.224;2023-12-20T16:06:22;9.33;;;2.43;;
5491;SDS011;2768;53.540;10.224;2023-12-20T16:12:17;12.03;;;3.47;;
5491;SDS011;2768;53.540;10.224;2023-12-20T16:18:12;13.33;;;2.93;;
5491;SDS011;2768;53.540;10.224;2023-12-20T16:24:07;9.90;;;2.40;;
5491;SDS011;2768;53.540;10.224;2023-12-20T16:30:00;14.80;;;3.50;;
5491;SDS011;2768;53.540;10.224;2023-12-20T16:35:56;13.80;;;3.10;;
5491;SDS011;2768;53.540;10.224;2023-12-20T16:41:50;12.93;;;3.77;;
5491;SDS011;2768;53.540;10.224;2023-12-20T16:47:43;9.43;;;2.90;;
5491;SDS011;2768;53.540;10.224;2023-12-20T16:53:40;8.90;;;2.47;;
5491;SDS011;2768;53.540;10.224;2023-12-20T16:59:35;12.37;;;2.60;;
5491;SDS011;2768;53.540;10.224;2023-12-20T17:05:30;7.27;;;3.13;;
5491;SDS011;2768;53.540;10.224;2023-12-20T17:11:28;7.87;;;1.90;;
5491;SDS011;2768;53.540;10.224;2023-12-20T17:17:21;5.07;;;3.07;;
5491;SDS011;2768;53.540;10.224;2023-12-20T17:23:15;5.30;;;2.03;;
5491;SDS011;2768;53.540;10.224;2023-12-20T17:29:10;6.60;;;1.60;;
5491;SDS011;2768;53.540;10.224;2023-12-20T17:35:05;6.90;;;1.80;;
5491;SDS011;2768;53.540;10.224;2023-12-20T17:40:59;4.87;;;1.87;;
5491;SDS011;2768;53.540;10.224;2023-12-20T17:46:54;9.03;;;2.53;;
5491;SDS011;2768;53.540;10.224;2023-12-20T17:52:48;6.20;;;2.60;;
5491;SDS011;2768;53.540;10.224;2023-12-20T17:58:42;6.27;;;2.87;;
5491;SDS011;2768;53.540;10.224;2023-12-20T18:04:37;8.73;;;2.73;;
5491;SDS011;2768;53.540;10.224;2023-12-20T18:10:30;12.43;;;3.33;;
5491;SDS011;2768;53.540;10.224;2023-12-20T18:16:26;11.97;;;2.53;;
5491;SDS011;2768;53.540;10.224;2023-12-20T18:22:20;11.37;;;4.17;;
5491;SDS011;2768;53.540;10.224;2023-12-20T18:28:15;14.50;;;3.10;;
5491;SDS011;2768;53.540;10.224;2023-12-20T18:34:14;11.73;;;2.20;;
5491;SDS011;2768;53.540;10.224;2023-12-20T18:40:09;5.47;;;2.33;;
5491;SDS011;2768;53.540;10.224;2023-12-20T18:46:03;10.33;;;2.37;;
5491;SDS011;2768;53.540;10.224;2023-12-20T18:51:56;7.87;;;2.30;;
5491;SDS011;2768;53.540;10.224;2023-12-20T18:57:51;9.43;;;2.20;;
5491;SDS011;2768;53.540;10.224;2023-12-20T19:03:45;5.80;;;2.00;;
5491;SDS011;2768;53.540;10.224;2023-12-20T19:09:38;5.70;;;1.60;;
5491;SDS011;2768;53.540;10.224;2023-12-20T19:15:35;5.23;;;1.70;;
5491;SDS011;2768;53.540;10.224;2023-12-20T19:21:28;5.70;;;1.77;;
5491;SDS011;2768;53.540;10.224;2023-12-20T19:27:21;5.90;;;2.00;;
5491;SDS011;2768;53.540;10.224;2023-12-20T19:33:17;2.33;;;1.60;;
5491;SDS011;2768;53.540;10.224;2023-12-20T19:39:10;4.50;;;1.80;;
5491;SDS011;2768;53.540;10.224;2023-12-20T19:45:03;4.13;;;1.80;;
5491;SDS011;2768;53.540;10.224;2023-12-20T19:50:59;8.07;;;1.60;;
5491;SDS011;2768;53.540;10.224;2023-12-20T19:56:52;3.17;;;1.43;;
5491;SDS011;2768;53.540;10.224;2023-12-20T20:02:46;3.80;;;1.20;;
5491;SDS011;2768;53.540;10.224;2023-12-20T20:08:41;2.63;;;1.70;;
5491;SDS011;2768;53.540;10.224;2023-12-20T20:14:34;3.13;;;1.43;;
5491;SDS011;2768;53.540;10.224;2023-12-20T20:20:27;5.90;;;1.40;;
5491;SDS011;2768;53.540;10.224;2023-12-20T20:26:21;5.33;;;1.60;;
5491;SDS011;2768;53.540;10.224;2023-12-20T20:32:15;4.37;;;1.80;;
5491;SDS011;2768;53.540;10.224;2023-12-20T20:38:08;5.30;;;1.80;;
5491;SDS011;2768;53.540;10.224;2023-12-20T20:44:03;4.60;;;1.73;;
5491;SDS011;2768;53.540;10.224;2023-12-20T20:49:58;7.67;;;1.90;;
5491;SDS011;2768;53.540;10.224;2023-12-20T20:55:52;7.80;;;2.07;;
5491;SDS011;2768;53.540;10.224;2023-12-20T21:01:46;8.23;;;2.10;;
5491;SDS011;2768;53.540;10.224;2023-12-20T21:07:40;6.17;;;2.20;;
5491;SDS011;2768;53.540;10.224;2023-12-20T21:13:36;10.37;;;2.57;;
5491;SDS011;2768;53.540;10.224;2023-12-20T21:19:36;5.20;;;2.50;;
5491;SDS011;2768;53.540;10.224;2023-12-20T21:25:29;6.33;;;2.70;;
5491;SDS011;2768;53.540;10.224;2023-12-20T21:31:23;6.50;;;2.17;;
5491;SDS011;2768;53.540;10.224;2023-12-20T21:37:18;4.93;;;2.20;;
5491;SDS011;2768;53.540;10.224;2023-12-20T21:43:13;4.63;;;2.47;;
5491;SDS011;2768;53.540;10.224;2023-12-20T21:49:06;3.00;;;2.00;;
5491;SDS011;2768;53.540;10.224;2023-12-20T21:55:01;6.40;;;2.53;;
5491;SDS011;2768;53.540;10.224;2023-12-20T22:00:55;3.60;;;2.00;;
5491;SDS011;2768;53.540;10.224;2023-12-20T22:06:48;3.63;;;1.90;;
5491;SDS011;2768;53.540;10.224;2023-12-20T22:12:43;2.10;;;1.90;;
5491;SDS011;2768;53.540;10.224;2023-12-20T22:18:36;3.30;;;2.37;;
5491;SDS011;2768;53.540;10.224;2023-12-20T22:24:29;2.70;;;2.00;;
5491;SDS011;2768;53.540;10.224;2023-12-20T22:30:24;2.63;;;1.93;;
5491;SDS011;2768;53.540;10.224;2023-12-20T22:36:17;3.00;;;2.57;;
5491;SDS011;2768;53.540;10.224;2023-12-20T22:42:11;2.20;;;2.00;;
5491;SDS011;2768;53.540;10.224;2023-12-20T22:48:06;2.80;;;2.33;;
5491;SDS011;2768;53.540;10.224;2023-12-20T22:54:01;4.20;;;2.13;;
5491;SDS011;2768;53.540;10.224;2023-12-20T22:59:54;2.43;;;2.23;;
5491;SDS011;2768;53.540;10.224;2023-12-20T23:05:49;2.43;;;2.23;;
5491;SDS011;2768;53.540;10.224;2023-12-20T23:11:43;3.73;;;2.40;;
5491;SDS011;2768;53.540;10.224;2023-12-20T23:17:40;2.60;;;2.40;;
5491;SDS011;2768;53.540;10.224;2023-12-20T23:23:34;3.33;;;2.67;;
5491;SDS011;2768;53.540;10.224;2023-12-20T23:29:28;2.40;;;2.20;;
5491;SDS011;2768;53.540;10.224;2023-12-20T23:35:21;2.37;;;2.20;;
5491;SDS011;2768;53.540;10.224;2023-12-20T23:41:16;2.37;;;2.17;;
5491;SDS011;2768;53.540;10.224;2023-12-20T23:47:09;2.47;;;2.27;;
5491;SDS011;2768;53.540;10.224;2023-12-20T23:53:03;2.40;;;2.20;;
5491;SDS011;2768;53.540;10.224;2023-12-20T23:59:01;3.17;;;2.60;;
